Jordan, MT

9:45 AM MDT on July 26, 2014 (GMT -0600)
Wokal-Glasgow International (KGGW) Elev 2293 ft | 48.21 °N, 106.62 °W | Change Station

Current weather conditions updated 1 hour ago

Overcast
Overcast
59 °F
Feels Like 59 °F
N
15
Wind Variable Wind from West
Gusts 26 mph

Today is forecast to be Cooler than yesterday.

Today
High -- | Low -- °F
--% Chance of Precip.
Yesterday
High -- | Low -- °F
Precip. -- in
5:37 AM 8:49 PM
Waning Crescent, 0% visible
Pressure 29.98 in
Visibility 10.0 miles
Clouds Overcast 2400 ft
Dew Point 49 °F
Humidity 69%
Rainfall 0.00 in
Snow Depth Not available.
UV 0 out of 12
Pollen 6.40 out of 12
Air Quality Not available.
Flu Activity Not available.
METAR KGGW 261353Z AUTO 28013G23KT 10SM OVC024 15/09 A2999 RMK AO2 SLP150 T01500094

More Conditions Fewer Conditions

Pressure 29.98 in
Visibility 10.0 miles
Clouds Overcast 2400 ft
Dew Point 49 °F
Humidity 69%
Rainfall 0.00 in
Snow Depth Not available.
UV 0 out of 12
Pollen 6.40 out of 12
Air Quality Not available.
Flu Activity Not available.
METAR KGGW 261353Z AUTO 28013G23KT 10SM OVC024 15/09 A2999 RMK AO2 SLP150 T01500094

More Conditions Fewer Conditions

10-Day Weather Forecast

Almanac

Astronomy

Jul. 26, 2014 Rise Set
Actual Time 5:37 AM MDT 8:49 PM MDT
Civil Twilight 5:00 AM MDT 9:25 PM MDT
Nautical Twilight 4:12 AM MDT 10:13 PM MDT
Astronomical Twilight 3:11 AM MDT 11:13 PM MDT
Moon 5:37 AM MDT 8:18 PM MDT
Length of Visible Light 16h 25m
Length of Day
15h 11m
Tomorrow will be 2m 27s shorter.
Waning Crescent, 0% of the Moon is Illuminated
Today
Waning Crescent
Jul 26
New
Aug 3
First Quarter
Aug 10
Full
Aug 17
Last Quarter

Today's Extremes

State Highs State Lows

Community

WunderPhotos

Upload Photos

1,737,619 photos uploaded!

Nearby

Snow Depth

Station Depth Elevation
Crystal Lake 0 in 6050 ft
Rocky Boy 0 in 4700 ft
Daisy Peak 0 in 7600 ft
Spur Park 0 in 8100 ft
Onion Park 1 in 7410 ft

Earthquake Activity

City Distance Mag. Time & Date
No recent earthquake activity has been reported nearby.
Minimum magnitude displayed is 2.5.

Coastal Water Temperatures

Place Temperature
No Stations Reporting

Nearby Weather Stations

Station Location Temp. Dew Point Humidity Wind Precip. Elev Updated Type
MesoWest Jordan , Jordan, MT 61 °F 47 °F 59% WNW  at  11 mph 0.00 in / hr 2819 ft 8:00 AM MDT MADIS
RAWS KING COULEE MT, Jordan, MT 63 °F 48 °F 57% WNW  at  25 mph 0.00 in / hr 2759 ft 8:44 AM MDT MADIS

Show More Stations Show Fewer Stations